createdAt,value
2023-02-12T00:01:53.550Z,101556.19
2023-02-12T00:04:22.335Z,101563.36
2023-02-12T00:06:50.819Z,101566.21
2023-02-12T00:09:19.327Z,101563.46
2023-02-12T00:11:47.721Z,101566.75
2023-02-12T00:14:16.464Z,101577.33
2023-02-12T00:16:45.036Z,101589.98
2023-02-12T00:19:13.688Z,101595.09
2023-02-12T00:21:42.093Z,101597.06
2023-02-12T00:24:10.674Z,101602.77
2023-02-12T00:26:39.192Z,101607.49
2023-02-12T00:29:07.900Z,101617.04
2023-02-12T00:31:36.626Z,101616.81
2023-02-12T00:34:05.129Z,101619.73
2023-02-12T00:36:33.923Z,101620.23
2023-02-12T00:39:02.631Z,101615.40
2023-02-12T00:41:31.767Z,101622.45
2023-02-12T00:44:00.421Z,101623.63
2023-02-12T00:46:29.283Z,101628.77
2023-02-12T00:48:58.187Z,101629.80
2023-02-12T00:51:27.082Z,101626.64
2023-02-12T00:53:56.021Z,101633.13
2023-02-12T00:56:24.662Z,101639.94
2023-02-12T00:58:53.258Z,101648.47
2023-02-12T01:01:22.461Z,101650.85
2023-02-12T01:03:51.113Z,101658.14
2023-02-12T01:06:19.674Z,101661.77
2023-02-12T01:08:51.976Z,101662.86
2023-02-12T01:11:21.072Z,101666.86
2023-02-12T01:13:49.789Z,101669.40
2023-02-12T01:16:22.589Z,101671.45
2023-02-12T01:18:55.787Z,101680.52
2023-02-12T01:21:27.733Z,101686.38
2023-02-12T01:23:57.225Z,101687.45
2023-02-12T01:26:26.709Z,101689.11
2023-02-12T01:28:58.758Z,101695.10
2023-02-12T01:31:30.731Z,101699.54
2023-02-12T01:34:01.013Z,101699.16
2023-02-12T01:36:31.112Z,101703.34
2023-02-12T01:39:03.071Z,101710.76
2023-02-12T01:41:35.614Z,101712.25
2023-02-12T01:44:10.058Z,101707.99
2023-02-12T01:46:39.532Z,101711.80
2023-02-12T01:49:14.786Z,101713.17
2023-02-12T01:51:46.226Z,101723.25
2023-02-12T01:54:15.953Z,101726.36
2023-02-12T01:56:45.073Z,101720.04
2023-02-12T01:59:13.802Z,101718.67
2023-02-12T02:01:42.343Z,101730.76
2023-02-12T02:04:20.113Z,101742.52
2023-02-12T02:06:54.717Z,101745.59
2023-02-12T02:09:23.800Z,101752.80
2023-02-12T02:12:13.691Z,101745.69
2023-02-12T02:14:43.109Z,101756.70
2023-02-12T02:17:31.276Z,101755.23
2023-02-12T02:20:32.905Z,101768.86
2023-02-12T02:23:10.689Z,101778.19
2023-02-12T02:26:01.431Z,101785.31
2023-02-12T02:28:34.947Z,101778.66
2023-02-12T02:31:21.116Z,101783.98
2023-02-12T02:34:09.726Z,101799.54
2023-02-12T02:36:54.096Z,101804.17
2023-02-12T02:39:44.387Z,101813.33
2023-02-12T02:42:38.973Z,101812.07
2023-02-12T02:45:34.956Z,101816.15
2023-02-12T02:48:33.068Z,101831.27
2023-02-12T02:51:16.129Z,101827.02
2023-02-12T02:53:51.986Z,101829.15
2023-02-12T02:56:23.801Z,101835.80
2023-02-12T02:59:01.409Z,101845.09
2023-02-12T03:02:01.993Z,101851.83
2023-02-12T03:04:36.184Z,101855.59
2023-02-12T03:07:17.077Z,101858.60
2023-02-12T03:09:50.113Z,101869.03
2023-02-12T03:12:34.852Z,101882.44
2023-02-12T03:15:20.236Z,101891.38
2023-02-12T03:17:50.765Z,101892.95
2023-02-12T03:20:29.393Z,101901.09
2023-02-12T03:23:09.323Z,101913.42
2023-02-12T03:25:57.402Z,101918.04
2023-02-12T03:28:29.214Z,101921.08
2023-02-12T03:31:06.971Z,101920.55
2023-02-12T03:33:45.173Z,101927.90
2023-02-12T03:36:38.073Z,101932.88
2023-02-12T03:39:35.815Z,101933.85
2023-02-12T03:42:19.031Z,101939.85
2023-02-12T03:44:57.092Z,101949.64
2023-02-12T03:47:41.727Z,101956.44
2023-02-12T03:50:27.727Z,101965.35
2023-02-12T03:52:56.332Z,101969.22
2023-02-12T03:55:25.222Z,101970.37
2023-02-12T03:58:01.101Z,101966.16
2023-02-12T04:00:29.819Z,101969.23
2023-02-12T04:02:58.825Z,101971.68
2023-02-12T04:05:28.842Z,101980.02
2023-02-12T04:07:59.099Z,101979.80
2023-02-12T04:10:36.611Z,101976.49
2023-02-12T04:13:15.163Z,101972.58
2023-02-12T04:16:07.687Z,101977.47
2023-02-12T04:18:49.935Z,101976.95
2023-02-12T04:21:32.950Z,101983.84
2023-02-12T04:24:31.032Z,101988.46
2023-02-12T04:27:26.034Z,101994.53
2023-02-12T04:30:15.316Z,101998.73
2023-02-12T04:32:48.522Z,102001.43
2023-02-12T04:35:48.834Z,102004.43
2023-02-12T04:38:36.722Z,102006.44
2023-02-12T04:41:07.503Z,102002.08
2023-02-12T04:43:37.828Z,102005.64
2023-02-12T04:46:08.980Z,102008.25
2023-02-12T04:48:52.203Z,102006.90
2023-02-12T04:51:21.266Z,102010.09
2023-02-12T04:53:50.497Z,102014.30
2023-02-12T04:56:19.019Z,102012.85
2023-02-12T04:58:47.588Z,102013.66
2023-02-12T05:01:16.393Z,102017.95
2023-02-12T05:03:45.089Z,102025.39
2023-02-12T05:06:13.676Z,102038.34
2023-02-12T05:08:42.294Z,102045.38
2023-02-12T05:11:12.227Z,102042.05
2023-02-12T05:13:42.084Z,102044.52
2023-02-12T05:16:10.814Z,102056.27
2023-02-12T05:18:39.569Z,102057.58
2023-02-12T05:21:08.107Z,102066.17
2023-02-12T05:23:38.974Z,102072.35
2023-02-12T05:26:11.890Z,102077.23
2023-02-12T05:28:40.847Z,102083.27
2023-02-12T05:31:11.628Z,102089.58
2023-02-12T05:33:44.085Z,102090.27
2023-02-12T05:36:19.390Z,102095.96
2023-02-12T05:38:48.860Z,102101.22
2023-02-12T05:41:20.847Z,102106.54
2023-02-12T05:43:50.769Z,102110.74
2023-02-12T05:46:20.873Z,102113.16
2023-02-12T05:48:49.689Z,102117.02
2023-02-12T05:51:22.173Z,102120.92
2023-02-12T05:53:52.959Z,102122.14
2023-02-12T05:56:33.438Z,102127.77
2023-02-12T05:59:08.423Z,102133.81
2023-02-12T06:01:40.322Z,102135.14
2023-02-12T06:04:24.010Z,102142.61
2023-02-12T06:06:54.778Z,102151.34
2023-02-12T06:09:23.786Z,102158.24
2023-02-12T06:11:52.524Z,102167.96
2023-02-12T06:14:21.830Z,102167.57
2023-02-12T06:16:51.801Z,102170.23
2023-02-12T06:19:21.006Z,102171.04
2023-02-12T06:21:49.861Z,102174.60
2023-02-12T06:24:18.830Z,102180.96
2023-02-12T06:26:51.173Z,102187.42
2023-02-12T06:29:20.965Z,102188.92
2023-02-12T06:31:49.886Z,102190.90
2023-02-12T06:34:18.748Z,102189.04
2023-02-12T06:36:48.621Z,102194.23
2023-02-12T06:39:18.225Z,102201.57
2023-02-12T06:41:46.789Z,102207.23
2023-02-12T06:44:15.402Z,102201.45
2023-02-12T06:46:44.906Z,102203.19
2023-02-12T06:49:14.840Z,102200.24
2023-02-12T06:51:43.437Z,102202.27
2023-02-12T06:54:17.904Z,102205.33
2023-02-12T06:56:46.564Z,102205.64
2023-02-12T06:59:16.954Z,102203.20
2023-02-12T07:01:45.602Z,102210.02
2023-02-12T07:04:14.431Z,102215.33
2023-02-12T07:06:43.233Z,102222.17
2023-02-12T07:09:11.956Z,102220.12
2023-02-12T07:11:40.627Z,102223.83
2023-02-12T07:14:17.171Z,102220.95
2023-02-12T07:16:45.840Z,102225.16
2023-02-12T07:19:19.348Z,102229.61
2023-02-12T07:21:48.518Z,102230.34
2023-02-12T07:24:19.343Z,102236.17
2023-02-12T07:26:50.583Z,102234.41
2023-02-12T07:29:19.715Z,102237.67
2023-02-12T07:31:49.435Z,102239.88
2023-02-12T07:34:20.142Z,102242.17
2023-02-12T07:36:51.483Z,102242.83
2023-02-12T07:39:20.984Z,102239.22
2023-02-12T07:41:51.607Z,102239.95
2023-02-12T07:44:22.514Z,102240.34
2023-02-12T07:46:51.534Z,102238.21
2023-02-12T07:49:25.087Z,102236.77
2023-02-12T07:51:57.763Z,102234.04
2023-02-12T07:54:27.269Z,102240.98
2023-02-12T07:56:56.116Z,102242.90
2023-02-12T07:59:25.131Z,102237.56
2023-02-12T08:01:55.575Z,102249.61
2023-02-12T08:04:26.386Z,102255.36
2023-02-12T08:06:58.651Z,102258.31
2023-02-12T08:09:31.401Z,102261.33
2023-02-12T08:12:00.220Z,102268.25
2023-02-12T08:14:29.469Z,102269.23
2023-02-12T08:17:00.939Z,102266.69
2023-02-12T08:19:31.177Z,102268.73
2023-02-12T08:21:59.787Z,102271.23
2023-02-12T08:24:31.578Z,102273.19
2023-02-12T08:27:00.720Z,102270.48
2023-02-12T08:29:32.107Z,102275.80
2023-02-12T08:32:06.693Z,102279.39
2023-02-12T08:34:36.395Z,102280.02
2023-02-12T08:37:06.940Z,102275.38
2023-02-12T08:39:38.333Z,102273.36
2023-02-12T08:42:07.639Z,102279.39
2023-02-12T08:44:37.656Z,102280.89
2023-02-12T08:47:07.402Z,102281.47
2023-02-12T08:49:36.672Z,102288.19
2023-02-12T08:52:08.248Z,102285.20
2023-02-12T08:54:36.780Z,102278.35
2023-02-12T08:57:05.798Z,102280.80
2023-02-12T08:59:39.786Z,102281.33
2023-02-12T09:02:11.246Z,102284.02
2023-02-12T09:04:42.821Z,102279.59
2023-02-12T09:07:11.812Z,102278.05
2023-02-12T09:09:41.921Z,102285.55
2023-02-12T09:12:10.735Z,102284.98
2023-02-12T09:14:39.274Z,102288.48
2023-02-12T09:17:08.015Z,102295.28
2023-02-12T09:19:37.241Z,102294.43
2023-02-12T09:22:05.848Z,102296.34
2023-02-12T09:24:34.291Z,102292.92
2023-02-12T09:27:02.870Z,102287.95
2023-02-12T09:29:31.687Z,102291.08
2023-02-12T09:32:00.310Z,102301.36
2023-02-12T09:34:29.029Z,102310.52
2023-02-12T09:36:57.648Z,102311.27
2023-02-12T09:39:29.299Z,102310.27
2023-02-12T09:42:20.116Z,102308.61
2023-02-12T09:45:29.536Z,102309.54
2023-02-12T09:48:18.380Z,102323.02
2023-02-12T09:50:50.986Z,102331.39
2023-02-12T09:53:23.953Z,102335.13
2023-02-12T09:55:52.510Z,102335.83
2023-02-12T09:58:34.481Z,102336.77
2023-02-12T10:01:15.252Z,102333.62
2023-02-12T10:03:45.912Z,102336.94
2023-02-12T10:06:22.949Z,102337.48
2023-02-12T10:08:58.137Z,102330.61
2023-02-12T10:11:53.502Z,102329.74
2023-02-12T10:14:42.184Z,102332.57
2023-02-12T10:17:26.095Z,102332.02
2023-02-12T10:20:09.995Z,102326.78
2023-02-12T10:22:57.391Z,102319.20
2023-02-12T10:25:53.008Z,102319.73
2023-02-12T10:28:33.208Z,102318.20
2023-02-12T10:31:06.285Z,102320.88
2023-02-12T10:33:41.534Z,102326.38
2023-02-12T10:36:33.700Z,102327.55
2023-02-12T10:39:09.214Z,102331.22
2023-02-12T10:41:46.110Z,102331.20
2023-02-12T10:44:14.798Z,102323.02
2023-02-12T10:46:43.794Z,102326.98
2023-02-12T10:49:16.189Z,102318.77
2023-02-12T10:52:03.962Z,102316.40
2023-02-12T10:54:47.325Z,102317.45
2023-02-12T10:57:26.899Z,102320.89
2023-02-12T10:59:57.735Z,102313.14
2023-02-12T11:02:33.063Z,102314.77
2023-02-12T11:05:26.614Z,102314.25
2023-02-12T11:07:58.797Z,102316.48
2023-02-12T11:10:32.226Z,102308.16
2023-02-12T11:13:02.328Z,102306.61
2023-02-12T11:15:38.389Z,102310.67
2023-02-12T11:18:08.883Z,102307.83
2023-02-12T11:20:49.597Z,102314.38
2023-02-12T11:23:31.094Z,102316.07
2023-02-12T11:26:01.427Z,102315.42
2023-02-12T11:28:32.379Z,102308.27
2023-02-12T11:31:22.943Z,102311.09
2023-02-12T11:34:20.089Z,102310.49
2023-02-12T11:36:54.702Z,102312.29
2023-02-12T11:39:33.974Z,102313.54
2023-02-12T11:42:06.040Z,102309.64
2023-02-12T11:44:44.703Z,102301.74
2023-02-12T11:47:20.769Z,102298.10
2023-02-12T11:49:55.518Z,102299.73
2023-02-12T11:52:34.961Z,102301.70
2023-02-12T11:55:19.567Z,102300.09
2023-02-12T11:57:52.597Z,102297.21
2023-02-12T12:00:25.541Z,102293.06
2023-02-12T12:03:02.563Z,102291.98
2023-02-12T12:05:39.280Z,102295.12
2023-02-12T12:08:16.964Z,102298.24
2023-02-12T12:10:53.169Z,102296.23
2023-02-12T12:13:40.008Z,102292.36
2023-02-12T12:16:39.659Z,102297.61
2023-02-12T12:19:52.844Z,102297.86
2023-02-12T12:22:37.310Z,102296.51
2023-02-12T12:25:19.395Z,102293.90
2023-02-12T12:28:03.677Z,102286.81
2023-02-12T12:31:05.346Z,102279.02
2023-02-12T12:33:47.710Z,102280.14
2023-02-12T12:36:59.624Z,102278.00
2023-02-12T12:39:44.126Z,102275.67
2023-02-12T12:42:51.120Z,102271.39
2023-02-12T12:45:44.805Z,102270.59
2023-02-12T12:48:32.443Z,102272.55
2023-02-12T12:51:20.959Z,102267.17
2023-02-12T12:54:06.971Z,102261.52
2023-02-12T12:57:28.312Z,102259.14
2023-02-12T13:00:25.015Z,102257.86
2023-02-12T13:03:13.921Z,102263.19
2023-02-12T13:05:52.081Z,102262.85
2023-02-12T13:08:21.216Z,102264.83
2023-02-12T13:10:56.976Z,102262.42
2023-02-12T13:13:38.085Z,102256.81
2023-02-12T13:16:07.673Z,102254.65
2023-02-12T13:19:01.153Z,102249.27
2023-02-12T13:21:38.083Z,102248.98
2023-02-12T13:24:25.159Z,102248.75
2023-02-12T13:27:08.514Z,102250.58
2023-02-12T13:30:20.711Z,102248.32
2023-02-12T13:33:07.072Z,102253.65
2023-02-12T13:35:42.597Z,102250.73
2023-02-12T13:38:19.591Z,102254.20
2023-02-12T13:40:50.161Z,102257.01
2023-02-12T13:43:24.781Z,102255.23
2023-02-12T13:46:04.119Z,102257.05
2023-02-12T13:48:52.707Z,102263.48
2023-02-12T13:51:55.876Z,102264.04
2023-02-12T13:54:46.492Z,102259.50
2023-02-12T13:57:18.419Z,102254.13
2023-02-12T13:59:57.570Z,102254.03
2023-02-12T14:02:53.476Z,102254.21
2023-02-12T14:05:29.333Z,102252.19
2023-02-12T14:08:02.404Z,102250.56
2023-02-12T14:10:38.862Z,102254.39
2023-02-12T14:13:18.374Z,102256.39
2023-02-12T14:15:55.368Z,102253.15
2023-02-12T14:18:26.998Z,102255.52
2023-02-12T14:21:14.772Z,102253.29
2023-02-12T14:23:45.064Z,102259.20
2023-02-12T14:26:21.663Z,102264.05
2023-02-12T14:29:05.289Z,102262.30
2023-02-12T14:31:39.907Z,102258.33
2023-02-12T14:34:22.802Z,102259.06
2023-02-12T14:37:18.761Z,102257.00
2023-02-12T14:39:53.077Z,102260.10
2023-02-12T14:42:25.272Z,102259.84
2023-02-12T14:44:58.608Z,102257.98
2023-02-12T14:47:34.256Z,102254.96
2023-02-12T14:50:14.021Z,102250.45
2023-02-12T14:53:13.294Z,102250.95
2023-02-12T14:55:53.110Z,102248.83
2023-02-12T14:58:26.368Z,102246.52
2023-02-12T15:00:58.781Z,102239.74
2023-02-12T15:03:51.972Z,102239.03
2023-02-12T15:06:25.719Z,102250.23
2023-02-12T15:09:01.903Z,102253.64
2023-02-12T15:11:35.990Z,102258.83
2023-02-12T15:14:19.570Z,102254.23
2023-02-12T15:17:07.618Z,102250.61
2023-02-12T15:19:42.933Z,102250.83
2023-02-12T15:22:24.238Z,102251.94
2023-02-12T15:24:53.676Z,102254.45
2023-02-12T15:27:25.062Z,102255.48
2023-02-12T15:29:57.656Z,102262.23
2023-02-12T15:32:33.856Z,102261.08
2023-02-12T15:35:03.240Z,102260.23
2023-02-12T15:37:33.771Z,102263.33
2023-02-12T15:40:11.976Z,102264.33
2023-02-12T15:42:51.876Z,102270.98
2023-02-12T15:45:26.090Z,102274.44
2023-02-12T15:48:10.067Z,102277.52
2023-02-12T15:51:01.239Z,102275.08
2023-02-12T15:53:33.707Z,102275.66
2023-02-12T15:56:04.530Z,102278.88
2023-02-12T15:58:58.456Z,102282.71
2023-02-12T16:01:35.502Z,102282.08
2023-02-12T16:04:09.916Z,102283.25
2023-02-12T16:06:40.231Z,102285.18
2023-02-12T16:09:14.277Z,102278.14
2023-02-12T16:11:48.789Z,102276.52
2023-02-12T16:14:27.251Z,102273.10
2023-02-12T16:17:02.081Z,102262.80
2023-02-12T16:19:33.520Z,102260.12
2023-02-12T16:22:23.199Z,102259.91
2023-02-12T16:24:54.560Z,102258.65
2023-02-12T16:27:33.864Z,102260.23
2023-02-12T16:30:35.131Z,102260.50
2023-02-12T16:33:26.374Z,102266.09
2023-02-12T16:36:23.411Z,102259.80
2023-02-12T16:38:56.311Z,102265.60
2023-02-12T16:41:31.249Z,102265.90
2023-02-12T16:44:01.836Z,102264.68
2023-02-12T16:51:40.587Z,102252.42
2023-02-12T16:54:33.536Z,102244.50
2023-02-12T16:57:03.809Z,102243.08
2023-02-12T16:59:32.750Z,102245.42
2023-02-12T17:09:50.364Z,102238.23
2023-02-12T17:12:20.893Z,102236.27
2023-02-12T17:14:53.236Z,102233.64
2023-02-12T17:17:27.995Z,102237.26
2023-02-12T17:19:56.788Z,102243.91
2023-02-12T17:22:29.129Z,102235.89
2023-02-12T17:24:58.325Z,102239.97
2023-02-12T17:27:27.202Z,102241.21
2023-02-12T17:29:57.645Z,102251.65
2023-02-12T17:32:26.698Z,102251.98
2023-02-12T17:34:56.517Z,102251.45
2023-02-12T17:37:26.053Z,102256.30
2023-02-12T17:39:56.572Z,102251.02
2023-02-12T17:42:25.533Z,102252.19
2023-02-12T17:44:54.649Z,102262.60
2023-02-12T17:47:27.534Z,102267.80
2023-02-12T17:49:56.799Z,102266.90
2023-02-12T17:52:26.158Z,102267.76
2023-02-12T17:54:55.653Z,102275.40
2023-02-12T17:57:25.330Z,102279.98
2023-02-12T17:59:54.344Z,102280.46
2023-02-12T18:02:24.255Z,102285.44
2023-02-12T18:04:56.836Z,102283.30
2023-02-12T18:07:26.542Z,102282.34
2023-02-12T18:10:00.708Z,102277.48
2023-02-12T18:12:40.124Z,102272.63
2023-02-12T18:15:18.609Z,102268.16
2023-02-12T18:17:49.958Z,102266.45
2023-02-12T18:20:18.735Z,102262.38
2023-02-12T18:22:48.367Z,102264.21
2023-02-12T18:25:20.649Z,102268.17
2023-02-12T18:27:51.235Z,102262.46
2023-02-12T18:30:22.926Z,102257.86
2023-02-12T18:32:55.679Z,102255.38
2023-02-12T18:35:26.843Z,102248.95
2023-02-12T18:37:55.999Z,102240.75
2023-02-12T18:40:27.604Z,102238.04
2023-02-12T18:42:56.898Z,102240.48
2023-02-12T18:45:26.707Z,102243.95
2023-02-12T18:47:56.145Z,102244.39
2023-02-12T18:50:25.459Z,102239.05
2023-02-12T18:52:55.849Z,102233.63
2023-02-12T18:55:35.019Z,102236.23
2023-02-12T18:58:08.634Z,102237.77
2023-02-12T19:00:39.657Z,102237.70
2023-02-12T19:03:14.974Z,102233.92
2023-02-12T19:05:44.139Z,102229.77
2023-02-12T19:08:15.996Z,102229.33
2023-02-12T19:10:49.887Z,102228.18
2023-02-12T19:13:19.280Z,102226.76
2023-02-12T19:15:54.324Z,102227.63
2023-02-12T19:18:23.697Z,102227.88
2023-02-12T19:20:55.283Z,102223.63
2023-02-12T19:23:24.248Z,102225.15
2023-02-12T19:25:53.172Z,102225.83
2023-02-12T19:28:24.409Z,102221.89
2023-02-12T19:30:53.209Z,102221.53
2023-02-12T19:33:21.962Z,102224.21
2023-02-12T19:36:18.373Z,102219.78
2023-02-12T19:38:50.083Z,102216.48
2023-02-12T19:41:21.694Z,102213.63
2023-02-12T19:43:57.095Z,102207.89
2023-02-12T19:46:28.462Z,102200.90
2023-02-12T19:49:00.646Z,102198.21
2023-02-12T19:51:30.706Z,102198.58
2023-02-12T19:54:05.044Z,102195.48
2023-02-12T19:56:35.819Z,102194.80
2023-02-12T19:59:05.069Z,102194.14
2023-02-12T20:01:39.478Z,102186.85
2023-02-12T20:04:08.423Z,102188.30
2023-02-12T20:06:38.399Z,102187.65
2023-02-12T20:09:08.982Z,102187.01
2023-02-12T20:11:39.131Z,102183.63
2023-02-12T20:14:10.524Z,102184.73
2023-02-12T20:17:14.016Z,102184.96
2023-02-12T20:19:45.062Z,102189.36
2023-02-12T20:22:14.401Z,102182.60
2023-02-12T20:24:43.113Z,102181.10
2023-02-12T20:27:12.560Z,102180.64
2023-02-12T20:29:41.665Z,102181.02
2023-02-12T20:32:11.979Z,102184.98
2023-02-12T20:34:50.438Z,102183.20
2023-02-12T20:37:20.343Z,102179.33
2023-02-12T20:39:49.244Z,102179.80
2023-02-12T20:42:21.022Z,102176.35
2023-02-12T20:44:50.359Z,102171.91
2023-02-12T20:47:19.474Z,102172.20
2023-02-12T20:49:48.200Z,102172.55
2023-02-12T20:52:17.184Z,102173.69
2023-02-12T20:54:48.007Z,102162.39
2023-02-12T20:57:18.045Z,102157.23
2023-02-12T20:59:50.104Z,102151.98
2023-02-12T21:02:19.006Z,102145.48
2023-02-12T21:04:51.392Z,102145.82
2023-02-12T21:07:20.120Z,102140.75
2023-02-12T21:09:49.350Z,102138.45
2023-02-12T21:12:20.292Z,102141.82
2023-02-12T21:14:49.484Z,102142.64
2023-02-12T21:17:20.591Z,102144.52
2023-02-12T21:19:49.722Z,102148.11
2023-02-12T21:22:18.507Z,102145.59
2023-02-12T21:24:47.371Z,102147.28
2023-02-12T21:27:16.989Z,102142.21
2023-02-12T21:29:46.185Z,102143.65
2023-02-12T21:32:19.576Z,102143.45
2023-02-12T21:34:49.132Z,102138.63
2023-02-12T21:37:18.189Z,102141.02
2023-02-12T21:39:47.213Z,102137.52
2023-02-12T21:42:16.607Z,102133.63
2023-02-12T21:44:45.762Z,102133.22
2023-02-12T21:47:15.007Z,102133.89
2023-02-12T21:49:44.037Z,102131.50
2023-02-12T21:52:13.821Z,102130.27
2023-02-12T21:54:43.695Z,102133.23
2023-02-12T21:57:18.614Z,102130.86
2023-02-12T21:59:47.360Z,102125.66
2023-02-12T22:02:16.026Z,102124.11
2023-02-12T22:04:45.812Z,102120.23
2023-02-12T22:07:16.385Z,102114.73
2023-02-12T22:09:44.719Z,102107.54
2023-02-12T22:12:13.246Z,102107.86
2023-02-12T22:14:41.812Z,102111.63
2023-02-12T22:17:10.363Z,102117.98
2023-02-12T22:19:39.656Z,102114.66
2023-02-12T22:22:11.524Z,102113.70
2023-02-12T22:24:39.976Z,102111.19
2023-02-12T22:27:08.696Z,102106.73
2023-02-12T22:29:37.396Z,102105.50
2023-02-12T22:32:05.951Z,102106.30
2023-02-12T22:34:34.708Z,102108.94
2023-02-12T22:37:03.312Z,102105.59
2023-02-12T22:39:31.798Z,102105.98
2023-02-12T22:42:00.399Z,102108.23
2023-02-12T22:44:29.130Z,102103.91
2023-02-12T22:46:57.689Z,102101.20
2023-02-12T22:49:26.240Z,102092.88
2023-02-12T22:51:55.012Z,102086.23
2023-02-12T22:54:23.677Z,102085.33
2023-02-12T22:56:53.137Z,102088.71
2023-02-12T22:59:21.845Z,102082.34
2023-02-12T23:01:50.791Z,102074.45
2023-02-12T23:04:20.105Z,102073.95
2023-02-12T23:06:48.795Z,102072.77
2023-02-12T23:09:19.379Z,102069.11
2023-02-12T23:11:48.690Z,102068.91
2023-02-12T23:14:18.229Z,102069.45
2023-02-12T23:16:47.394Z,102067.34
2023-02-12T23:19:16.245Z,102062.42
2023-02-12T23:21:45.096Z,102055.84
2023-02-12T23:24:14.572Z,102050.23
2023-02-12T23:26:43.555Z,102044.48
2023-02-12T23:29:13.855Z,102045.49
2023-02-12T23:31:45.823Z,102042.34
2023-02-12T23:34:14.646Z,102041.28
2023-02-12T23:36:48.970Z,102037.34
2023-02-12T23:39:18.097Z,102034.74
2023-02-12T23:41:48.963Z,102036.62
2023-02-12T23:44:25.020Z,102030.58
2023-02-12T23:46:56.960Z,102028.34
2023-02-12T23:49:27.030Z,102027.83
2023-02-12T23:51:59.008Z,102026.45
2023-02-12T23:54:28.672Z,102018.40
2023-02-12T23:56:57.306Z,102012.02
2023-02-12T23:59:26.594Z,102010.51
